Time;durP1;ratioP1;P1;durP2;ratioP2;P2;SDS_P1;SDS_P2;PMS_P1;PMS_P2;Temp;Humidity;BMP_temperature;BMP_pressure;BME280_temperature;BME280_humidity;BME280_pressure;Samples;Min_cycle;Max_cycle;Signal;HPM_P1;HPM_P2
2021/08/26 00:00:08;;;;;;;7.20;6.60;;;22.10;32.20;;;;;;5033142;28;20204;-66
2021/08/26 00:08:40;;;;;;;8.30;7.00;;;22.10;32.00;;;;;;5032731;28;20499;-66
2021/08/26 00:11:06;;;;;;;9.43;8.53;;;22.10;31.90;;;;;;5032740;28;20498;-66
2021/08/26 00:13:53;;;;;;;7.43;6.73;;;22.10;31.90;;;;;;5033033;28;20173;-66
2021/08/26 00:17:09;;;;;;;8.80;7.90;;;22.10;32.00;;;;;;5032383;28;20169;-66
2021/08/26 00:19:34;;;;;;;8.60;7.80;;;22.10;31.90;;;;;;5032605;28;20424;-67
2021/08/26 00:29:09;;;;;;;6.60;6.00;;;22.00;31.60;;;;;;5032795;28;20406;-66
2021/08/26 00:38:21;;;;;;;8.73;7.30;;;22.10;31.70;;;;;;5031970;28;20486;-66
2021/08/26 00:40:50;;;;;;;7.47;6.87;;;22.00;31.70;;;;;;5032523;28;20426;-66
2021/08/26 00:43:16;;;;;;;6.60;6.07;;;22.00;31.70;;;;;;5032431;28;20503;-66
2021/08/26 00:45:43;;;;;;;7.03;6.33;;;22.00;31.60;;;;;;5032451;28;20442;-66
2021/08/26 00:48:09;;;;;;;7.57;6.90;;;22.00;31.60;;;;;;5032160;28;20196;-67
2021/08/26 00:50:35;;;;;;;6.93;6.23;;;22.00;31.60;;;;;;5032341;28;20795;-66
2021/08/26 00:53:00;;;;;;;8.00;7.00;;;22.00;31.60;;;;;;5031731;28;20200;-66
2021/08/26 00:55:26;;;;;;;6.80;6.30;;;22.00;31.70;;;;;;5032316;28;20630;-66
2021/08/26 00:57:53;;;;;;;7.40;6.80;;;22.00;31.60;;;;;;5031897;28;20295;-66
2021/08/26 01:00:18;;;;;;;7.20;6.57;;;22.00;31.60;;;;;;5031903;28;20231;-67
2021/08/26 01:03:15;;;;;;;7.80;6.30;;;22.00;31.60;;;;;;5032105;28;20779;-66
2021/08/26 01:05:44;;;;;;;7.27;6.67;;;22.00;31.60;;;;;;5031760;28;20189;-66
2021/08/26 01:08:16;;;;;;;8.00;7.20;;;22.00;31.60;;;;;;5030616;28;20442;-66
2021/08/26 01:10:44;;;;;;;7.10;6.40;;;22.00;31.60;;;;;;5032026;28;20412;-66
2021/08/26 01:13:10;;;;;;;8.17;7.47;;;22.00;31.60;;;;;;5031827;28;20542;-66
2021/08/26 01:15:36;;;;;;;7.27;6.57;;;22.00;31.70;;;;;;5031454;28;20780;-66
2021/08/26 01:18:02;;;;;;;6.53;5.93;;;22.00;31.60;;;;;;5031676;28;20433;-66
2021/08/26 01:20:28;;;;;;;7.23;6.63;;;22.00;31.60;;;;;;5031964;28;20498;-66
2021/08/26 01:22:53;;;;;;;7.17;6.47;;;22.00;31.60;;;;;;5031553;28;20665;-66
2021/08/26 01:25:23;;;;;;;8.03;6.73;;;22.00;31.60;;;;;;5031802;28;20176;-66
2021/08/26 01:31:10;;;;;;;7.27;6.57;;;22.00;31.60;;;;;;5031475;28;20950;-66
2021/08/26 01:33:36;;;;;;;7.07;6.37;;;22.00;31.70;;;;;;5031606;28;20471;-66
2021/08/26 01:36:03;;;;;;;6.13;5.63;;;22.00;31.60;;;;;;5031619;28;20184;-66
2021/08/26 01:39:19;;;;;;;7.40;6.17;;;22.00;31.60;;;;;;5031239;28;20204;-66
2021/08/26 01:41:49;;;;;;;7.03;6.40;;;22.00;31.60;;;;;;5031603;28;20889;-67
2021/08/26 01:44:28;;;;;;;7.40;6.80;;;21.90;31.50;;;;;;5031542;28;20441;-67
2021/08/26 01:50:15;;;;;;;7.73;7.00;;;22.00;31.60;;;;;;5031719;28;20908;-67
2021/08/26 01:52:40;;;;;;;7.37;6.77;;;21.90;31.50;;;;;;5031225;28;20450;-67
2021/08/26 01:55:06;;;;;;;6.87;6.27;;;21.90;31.50;;;;;;5031418;28;20169;-67
2021/08/26 01:57:32;;;;;;;7.60;6.90;;;21.90;31.50;;;;;;5031206;28;20268;-67
2021/08/26 02:00:06;;;;;;;6.90;6.30;;;21.90;31.50;;;;;;5031441;28;20461;-67
2021/08/26 02:02:32;;;;;;;7.83;6.93;;;21.90;31.50;;;;;;5031404;28;20416;-67
2021/08/26 02:04:57;;;;;;;6.33;5.67;;;21.90;31.60;;;;;;5031322;28;20414;-67
2021/08/26 02:07:23;;;;;;;7.53;6.70;;;21.90;31.50;;;;;;5031133;28;20588;-67
2021/08/26 02:09:48;;;;;;;7.30;6.70;;;21.90;31.50;;;;;;5031345;28;20188;-67
2021/08/26 02:12:14;;;;;;;6.90;6.30;;;21.90;31.50;;;;;;5031168;28;20632;-67
2021/08/26 02:14:40;;;;;;;6.10;5.60;;;21.90;31.60;;;;;;5031056;28;20222;-67
2021/08/26 02:17:05;;;;;;;7.00;6.20;;;21.90;31.50;;;;;;5032782;28;20553;-67
2021/08/26 02:19:31;;;;;;;7.63;6.57;;;21.90;31.50;;;;;;5035165;28;20208;-66
2021/08/26 02:21:56;;;;;;;6.63;5.93;;;21.90;31.50;;;;;;5034767;28;20177;-66
2021/08/26 02:24:22;;;;;;;7.10;6.47;;;21.90;31.50;;;;;;5035185;28;20184;-66
2021/08/26 02:26:47;;;;;;;6.40;5.83;;;21.90;31.60;;;;;;5034643;28;20177;-67
2021/08/26 02:29:13;;;;;;;6.73;6.13;;;21.90;31.60;;;;;;5034693;28;20195;-66
2021/08/26 02:31:38;;;;;;;7.30;6.70;;;21.90;31.50;;;;;;5034736;28;20667;-66
2021/08/26 02:34:04;;;;;;;7.17;6.57;;;21.90;31.50;;;;;;5034973;28;20734;-66
2021/08/26 02:36:29;;;;;;;7.40;6.70;;;21.90;31.50;;;;;;5034588;28;20580;-66
2021/08/26 02:38:55;;;;;;;6.90;6.20;;;21.90;31.50;;;;;;5034762;28;20299;-66
2021/08/26 02:41:21;;;;;;;5.40;5.00;;;21.90;31.50;;;;;;5034674;28;20184;-66
2021/08/26 02:43:46;;;;;;;6.10;5.60;;;21.90;31.50;;;;;;5034545;28;20226;-67
2021/08/26 02:46:12;;;;;;;6.93;6.33;;;21.90;31.50;;;;;;5034408;28;20181;-66
2021/08/26 02:48:37;;;;;;;8.40;6.33;;;21.90;31.50;;;;;;5034424;28;20205;-67
2021/08/26 02:51:03;;;;;;;6.17;5.67;;;21.90;31.60;;;;;;5034524;28;20207;-66
2021/08/26 02:53:29;;;;;;;7.53;5.57;;;21.90;31.60;;;;;;5034190;28;20219;-67
2021/08/26 02:55:57;;;;;;;7.13;6.50;;;21.90;31.60;;;;;;5034286;28;20799;-66
2021/08/26 02:58:23;;;;;;;6.60;5.97;;;21.80;31.40;;;;;;5034150;28;20243;-66
2021/08/26 03:00:48;;;;;;;7.20;6.60;;;21.90;31.50;;;;;;5034173;28;20411;-66
2021/08/26 03:03:14;;;;;;;6.13;5.53;;;21.90;31.50;;;;;;5034310;28;20169;-66
2021/08/26 03:05:39;;;;;;;6.40;5.80;;;21.80;31.40;;;;;;5034279;28;20181;-66
2021/08/26 03:08:05;;;;;;;7.03;6.40;;;21.80;31.50;;;;;;5033876;28;20200;-66
2021/08/26 03:10:30;;;;;;;6.17;5.33;;;21.80;31.40;;;;;;5034299;28;20176;-66
2021/08/26 03:12:56;;;;;;;7.03;6.43;;;21.90;31.50;;;;;;5034064;28;20542;-66
2021/08/26 03:15:22;;;;;;;6.23;5.10;;;21.80;31.40;;;;;;5033745;28;20192;-66
2021/08/26 03:17:50;;;;;;;6.50;5.97;;;21.90;31.60;;;;;;5034015;28;20188;-66
2021/08/26 03:20:16;;;;;;;6.23;5.37;;;21.90;31.50;;;;;;5034132;28;20172;-66
2021/08/26 03:22:42;;;;;;;6.77;6.17;;;21.80;31.50;;;;;;5033815;28;20963;-66
2021/08/26 03:25:08;;;;;;;6.30;5.70;;;21.80;31.40;;;;;;5033777;28;20487;-67
2021/08/26 03:27:34;;;;;;;7.30;6.53;;;21.80;31.40;;;;;;5033736;28;20227;-66
2021/08/26 03:29:59;;;;;;;6.20;5.70;;;21.80;31.40;;;;;;5032231;28;20427;-66
2021/08/26 03:32:25;;;;;;;6.37;5.67;;;21.80;31.40;;;;;;5033824;28;20212;-67
2021/08/26 03:34:51;;;;;;;6.90;6.20;;;21.80;31.50;;;;;;5033543;28;20303;-66
2021/08/26 03:37:16;;;;;;;6.67;6.07;;;21.80;31.40;;;;;;5033343;28;20172;-67
2021/08/26 03:39:42;;;;;;;8.37;6.30;;;21.80;31.40;;;;;;5033119;28;20770;-67
2021/08/26 03:42:08;;;;;;;6.83;6.10;;;21.80;31.40;;;;;;5033349;28;20185;-66
2021/08/26 03:44:33;;;;;;;6.50;5.90;;;21.80;31.40;;;;;;5032731;28;20227;-66
2021/08/26 03:46:59;;;;;;;6.57;5.97;;;21.80;31.40;;;;;;5033502;28;20549;-66
2021/08/26 03:49:24;;;;;;;6.47;5.83;;;21.80;31.40;;;;;;5033243;28;20659;-66
2021/08/26 03:51:50;;;;;;;6.43;4.87;;;21.80;31.40;;;;;;5033197;28;20203;-66
2021/08/26 03:54:15;;;;;;;6.33;5.80;;;21.80;31.40;;;;;;5033231;28;20168;-66
2021/08/26 03:56:41;;;;;;;6.13;5.53;;;21.80;31.40;;;;;;5033089;28;20432;-66
2021/08/26 03:59:06;;;;;;;6.20;5.60;;;21.80;31.30;;;;;;5032965;28;20300;-66
2021/08/26 04:01:32;;;;;;;6.30;5.70;;;21.80;31.20;;;;;;5033176;28;20177;-66
2021/08/26 04:03:58;;;;;;;7.00;6.20;;;21.80;31.30;;;;;;5033139;28;20251;-66
2021/08/26 04:06:24;;;;;;;5.60;5.10;;;21.80;31.30;;;;;;5032553;28;20515;-67
2021/08/26 04:08:49;;;;;;;6.00;5.40;;;21.80;31.30;;;;;;5032869;28;20196;-66
2021/08/26 04:11:15;;;;;;;7.90;5.50;;;21.80;31.50;;;;;;5032756;28;20227;-67
2021/08/26 04:13:41;;;;;;;5.53;5.03;;;21.80;31.40;;;;;;5032722;28;20621;-66
2021/08/26 04:16:06;;;;;;;6.20;5.70;;;21.80;31.40;;;;;;5031430;28;20180;-70
2021/08/26 04:18:32;;;;;;;6.03;5.40;;;21.80;31.40;;;;;;5032868;28;20276;-69
2021/08/26 04:20:57;;;;;;;6.00;5.50;;;21.80;31.40;;;;;;5032556;28;20173;-70
2021/08/26 04:23:23;;;;;;;7.17;6.40;;;21.80;31.50;;;;;;5031111;28;20176;-70
2021/08/26 04:25:49;;;;;;;6.40;5.83;;;21.80;31.40;;;;;;5032264;28;20532;-67
2021/08/26 04:28:14;;;;;;;5.70;5.13;;;21.80;31.50;;;;;;5031000;28;20610;-67
2021/08/26 04:30:40;;;;;;;5.93;5.33;;;21.80;31.50;;;;;;5030123;28;20571;-67
2021/08/26 04:33:05;;;;;;;7.00;5.73;;;21.80;31.40;;;;;;5028629;28;20208;-67
2021/08/26 04:35:31;;;;;;;9.60;6.00;;;21.80;31.20;;;;;;5026845;28;20168;-67
2021/08/26 04:37:57;;;;;;;6.37;5.77;;;21.80;30.80;;;;;;5026806;28;20203;-67
2021/08/26 04:40:22;;;;;;;6.47;5.87;;;21.80;30.70;;;;;;5028861;28;20252;-67
2021/08/26 04:42:48;;;;;;;6.03;5.53;;;21.70;31.20;;;;;;5029081;28;20176;-67
2021/08/26 04:45:13;;;;;;;6.13;5.53;;;21.70;30.60;;;;;;5029020;28;20311;-67
2021/08/26 04:48:10;;;;;;;7.33;6.63;;;21.70;30.60;;;;;;5031096;28;20211;-67
2021/08/26 04:50:35;;;;;;;7.20;5.43;;;21.70;30.70;;;;;;5028177;28;20184;-67
2021/08/26 04:53:01;;;;;;;7.30;5.87;;;21.70;30.60;;;;;;5031338;28;20953;-67
2021/08/26 04:55:26;;;;;;;6.40;5.80;;;21.70;30.70;;;;;;5031640;28;20185;-67
2021/08/26 04:57:53;;;;;;;7.27;6.20;;;21.70;30.80;;;;;;5031699;28;20204;-67
2021/08/26 05:00:18;;;;;;;8.33;5.97;;;21.70;30.90;;;;;;5031870;28;20200;-67
2021/08/26 05:02:44;;;;;;;5.80;5.30;;;21.70;30.90;;;;;;5031715;28;20505;-67
2021/08/26 05:05:10;;;;;;;6.03;5.53;;;21.70;30.90;;;;;;5029559;28;20526;-67
2021/08/26 05:07:35;;;;;;;6.53;5.80;;;21.70;31.50;;;;;;5031462;28;20220;-67
2021/08/26 05:10:01;;;;;;;6.10;5.60;;;21.70;31.00;;;;;;5031826;28;20181;-67
2021/08/26 05:12:26;;;;;;;6.73;6.13;;;21.70;31.00;;;;;;5031610;28;20208;-67
2021/08/26 05:14:52;;;;;;;6.23;5.73;;;21.70;31.10;;;;;;5030541;28;20184;-66
2021/08/26 05:17:18;;;;;;;6.17;5.57;;;21.70;31.30;;;;;;5031584;28;20188;-66
2021/08/26 05:19:43;;;;;;;8.87;5.93;;;21.70;31.30;;;;;;5023193;28;20698;-66
2021/08/26 05:22:09;;;;;;;7.20;6.60;;;21.70;31.30;;;;;;5031516;28;20185;-67
2021/08/26 05:24:35;;;;;;;6.67;5.97;;;21.70;31.30;;;;;;5029067;28;20191;-66
2021/08/26 05:27:00;;;;;;;6.70;6.10;;;21.70;31.40;;;;;;5031150;28;20192;-66
2021/08/26 05:29:26;;;;;;;6.73;6.03;;;21.70;31.30;;;;;;5031583;28;20206;-66
2021/08/26 05:31:51;;;;;;;6.47;5.87;;;21.70;32.10;;;;;;5031392;28;20196;-66
2021/08/26 05:34:17;;;;;;;6.97;5.70;;;21.70;31.30;;;;;;5031277;28;20251;-66
2021/08/26 05:37:20;;;;;;;6.50;5.90;;;21.70;31.40;;;;;;5031239;28;20256;-66
2021/08/26 05:39:46;;;;;;;7.73;6.93;;;21.70;31.30;;;;;;5030696;28;20168;-66
2021/08/26 05:42:11;;;;;;;7.87;6.17;;;21.70;31.30;;;;;;5030402;28;20427;-66
2021/08/26 05:44:36;;;;;;;6.90;6.20;;;21.70;31.30;;;;;;5031383;28;20415;-66
2021/08/26 05:47:02;;;;;;;7.40;6.47;;;21.70;31.30;;;;;;5031486;28;20188;-67
2021/08/26 05:49:28;;;;;;;6.73;6.10;;;21.70;31.10;;;;;;5031168;28;20201;-68
2021/08/26 05:51:56;;;;;;;7.27;6.57;;;21.70;30.90;;;;;;5031810;28;20298;-67
2021/08/26 05:54:22;;;;;;;6.80;6.10;;;21.70;30.70;;;;;;5035387;28;20334;-66
2021/08/26 05:56:47;;;;;;;6.43;5.80;;;21.70;30.70;;;;;;5035017;28;20494;-66
2021/08/26 05:59:13;;;;;;;6.17;5.07;;;21.70;31.40;;;;;;5033537;28;20451;-70
2021/08/26 06:01:38;;;;;;;6.60;5.93;;;21.70;30.50;;;;;;5034053;28;20270;-68
2021/08/26 06:04:04;;;;;;;9.37;5.77;;;21.60;30.40;;;;;;5034852;28;20180;-68
2021/08/26 06:06:29;;;;;;;6.53;5.90;;;21.60;30.50;;;;;;5035113;28;20192;-68
2021/08/26 06:08:55;;;;;;;6.50;5.90;;;21.70;30.70;;;;;;5035254;28;20204;-68
2021/08/26 06:11:20;;;;;;;6.70;5.60;;;21.60;30.60;;;;;;5034911;28;20617;-69
2021/08/26 06:13:46;;;;;;;6.10;5.60;;;21.60;30.50;;;;;;5034971;28;20670;-69
2021/08/26 06:16:12;;;;;;;6.17;5.67;;;21.60;30.50;;;;;;5035106;28;20250;-69
2021/08/26 06:18:37;;;;;;;7.27;5.43;;;21.60;30.50;;;;;;5034859;28;20189;-67
2021/08/26 06:21:03;;;;;;;6.30;5.80;;;21.60;30.50;;;;;;5034962;28;20172;-66
2021/08/26 06:23:28;;;;;;;6.90;6.27;;;21.60;30.40;;;;;;5035003;28;20255;-66
2021/08/26 06:25:54;;;;;;;9.38;6.57;;;21.60;30.20;;;;;;5033383;28;20401;-67
2021/08/26 06:28:19;;;;;;;7.23;6.53;;;21.70;30.20;;;;;;5033457;28;20192;-68
2021/08/26 06:30:45;;;;;;;11.57;6.83;;;21.60;30.30;;;;;;5034571;28;20173;-68
2021/08/26 06:33:10;;;;;;;9.20;5.67;;;21.60;30.40;;;;;;5045994;28;20306;-69
2021/08/26 06:35:37;;;;;;;7.03;6.43;;;21.60;30.30;;;;;;5054370;28;20526;-69
2021/08/26 06:38:02;;;;;;;6.77;6.17;;;21.60;30.50;;;;;;5054407;28;20780;-69
2021/08/26 06:40:28;;;;;;;7.90;5.90;;;21.60;30.50;;;;;;5054590;28;20493;-71
2021/08/26 06:42:53;;;;;;;6.27;5.77;;;21.60;30.50;;;;;;5053967;28;20544;-67
2021/08/26 06:45:19;;;;;;;7.47;6.67;;;21.60;30.50;;;;;;5054771;28;20646;-68
2021/08/26 06:47:45;;;;;;;6.97;6.37;;;21.60;30.50;;;;;;5054792;28;20666;-67
2021/08/26 06:50:10;;;;;;;6.50;5.80;;;21.60;30.50;;;;;;5054062;28;20223;-67
2021/08/26 06:52:37;;;;;;;6.60;6.00;;;21.60;30.50;;;;;;5054021;28;20200;-67
2021/08/26 06:55:03;;;;;;;6.87;6.27;;;21.60;30.50;;;;;;5054172;28;20255;-67
2021/08/26 06:57:29;;;;;;;7.33;6.20;;;21.60;30.60;;;;;;5053622;28;20476;-67
2021/08/26 06:59:55;;;;;;;6.50;6.00;;;21.60;30.60;;;;;;5054591;28;20849;-66
2021/08/26 07:02:21;;;;;;;7.17;6.47;;;21.60;30.80;;;;;;5054075;28;20441;-66
2021/08/26 07:04:46;;;;;;;6.53;5.80;;;21.60;31.10;;;;;;5053303;28;20549;-66
2021/08/26 07:07:12;;;;;;;6.83;6.23;;;21.60;31.20;;;;;;5052825;28;20233;-66
2021/08/26 07:09:37;;;;;;;6.43;5.90;;;21.60;31.30;;;;;;5053897;28;20269;-66
2021/08/26 07:12:03;;;;;;;6.93;6.20;;;21.50;31.20;;;;;;5053527;28;20544;-66
2021/08/26 07:14:28;;;;;;;8.57;6.20;;;21.60;31.20;;;;;;5053849;28;20213;-66
2021/08/26 07:16:54;;;;;;;10.00;7.13;;;21.60;31.20;;;;;;5053772;28;20257;-66
2021/08/26 07:19:20;;;;;;;9.13;8.13;;;21.60;31.20;;;;;;5053669;28;20659;-66
2021/08/26 07:21:47;;;;;;;6.93;6.17;;;21.60;31.20;;;;;;5053901;28;20183;-66
2021/08/26 07:24:13;;;;;;;6.97;6.30;;;21.60;31.50;;;;;;5053756;28;20186;-66
2021/08/26 07:26:38;;;;;;;9.33;7.30;;;21.60;31.90;;;;;;5053104;28;20403;-66
2021/08/26 07:29:04;;;;;;;7.03;6.37;;;21.60;32.20;;;;;;5053558;28;20658;-67
2021/08/26 07:31:29;;;;;;;7.77;6.97;;;21.60;32.40;;;;;;5053504;28;20614;-67
2021/08/26 07:33:55;;;;;;;7.40;6.50;;;21.60;32.60;;;;;;5053574;28;20175;-67
2021/08/26 07:36:20;;;;;;;7.93;6.23;;;21.60;32.70;;;;;;5051958;28;20176;-67
2021/08/26 07:38:46;;;;;;;7.43;6.77;;;21.60;32.70;;;;;;5053599;28;20658;-67
2021/08/26 07:41:11;;;;;;;7.23;6.53;;;21.60;32.70;;;;;;5052964;28;20191;-67
2021/08/26 07:43:37;;;;;;;7.63;6.73;;;21.60;32.80;;;;;;5053541;28;20646;-67
2021/08/26 07:46:03;;;;;;;9.60;6.37;;;21.50;33.00;;;;;;5052983;28;20638;-67
2021/08/26 07:48:29;;;;;;;9.00;7.63;;;21.50;33.20;;;;;;5052883;28;20184;-67
2021/08/26 07:50:57;;;;;;;7.17;6.57;;;21.50;32.80;;;;;;5053203;28;20468;-67
2021/08/26 07:53:23;;;;;;;9.13;6.80;;;21.50;32.50;;;;;;5052913;28;20195;-67
2021/08/26 07:55:48;;;;;;;7.53;6.60;;;21.50;32.40;;;;;;5052630;28;20407;-67
2021/08/26 07:58:14;;;;;;;8.03;7.10;;;21.50;32.30;;;;;;5048313;28;20458;-66
2021/08/26 08:00:39;;;;;;;9.10;8.03;;;21.50;32.20;;;;;;5053124;28;20176;-67
2021/08/26 08:03:05;;;;;;;10.27;9.27;;;21.50;32.10;;;;;;5052459;28;20176;-66
2021/08/26 08:05:31;;;;;;;12.10;9.10;;;21.50;32.20;;;;;;5033482;28;20191;-67
2021/08/26 08:07:57;;;;;;;11.37;9.20;;;21.50;32.10;;;;;;5032801;28;20196;-67
2021/08/26 08:10:23;;;;;;;11.90;7.70;;;21.50;32.10;;;;;;5032487;28;20434;-67
2021/08/26 08:16:11;;;;;;;8.40;7.57;;;21.60;32.20;;;;;;5046196;28;20386;-66
2021/08/26 08:18:37;;;;;;;8.37;7.10;;;21.60;32.20;;;;;;5052263;28;20427;-67
2021/08/26 08:21:15;;;;;;;7.97;6.90;;;21.50;32.20;;;;;;5044770;28;20413;-68
2021/08/26 08:23:41;;;;;;;8.57;7.67;;;21.50;32.30;;;;;;5039757;28;20178;-68
2021/08/26 08:26:10;;;;;;;11.50;8.10;;;21.50;32.30;;;;;;5048265;28;20490;-66
2021/08/26 08:28:37;;;;;;;8.03;7.23;;;21.60;32.30;;;;;;5047380;28;20196;-67
2021/08/26 08:31:04;;;;;;;8.23;7.43;;;21.50;32.40;;;;;;5052195;28;20468;-66
2021/08/26 08:33:30;;;;;;;8.30;7.40;;;21.50;32.50;;;;;;5051896;28;20548;-67
2021/08/26 08:35:55;;;;;;;8.63;7.73;;;21.50;32.60;;;;;;5052152;28;20960;-66
2021/08/26 08:38:21;;;;;;;8.50;7.70;;;21.50;32.70;;;;;;5052298;28;20254;-67
2021/08/26 08:40:47;;;;;;;8.50;7.60;;;21.60;32.80;;;;;;5052196;28;20259;-67
2021/08/26 08:43:13;;;;;;;7.77;7.07;;;21.60;32.90;;;;;;5052071;28;20183;-67
2021/08/26 08:45:43;;;;;;;7.83;7.10;;;21.60;33.80;;;;;;5051975;28;20433;-67
2021/08/26 08:48:09;;;;;;;6.83;6.30;;;21.60;33.30;;;;;;5051376;28;20483;-66
2021/08/26 08:50:35;;;;;;;7.70;7.00;;;21.50;33.60;;;;;;5051986;28;20411;-65
2021/08/26 08:53:01;;;;;;;8.37;7.60;;;21.60;33.90;;;;;;5051746;28;20460;-66
2021/08/26 08:55:27;;;;;;;7.40;6.73;;;21.50;34.00;;;;;;5051514;28;20207;-67
2021/08/26 08:57:52;;;;;;;7.60;6.90;;;21.50;34.20;;;;;;5051786;28;20535;-67
2021/08/26 09:00:19;;;;;;;7.60;6.90;;;21.50;34.20;;;;;;5052294;28;20176;-65
2021/08/26 09:02:45;;;;;;;7.77;6.97;;;21.50;34.40;;;;;;5051740;28;20184;-67
2021/08/26 09:05:11;;;;;;;8.07;7.37;;;21.50;35.10;;;;;;5051703;28;20767;-66
2021/08/26 09:07:37;;;;;;;8.90;8.03;;;21.50;34.50;;;;;;5051914;28;20708;-66
2021/08/26 09:10:05;;;;;;;7.37;6.77;;;21.50;34.60;;;;;;5051802;28;20484;-65
2021/08/26 09:12:44;;;;;;;7.50;6.80;;;21.60;34.70;;;;;;5051746;28;20454;-67
2021/08/26 09:15:12;;;;;;;7.57;6.80;;;21.50;34.60;;;;;;5050820;28;20402;-67
2021/08/26 09:17:38;;;;;;;7.60;6.90;;;21.50;34.70;;;;;;5051273;28;20418;-68
2021/08/26 09:20:08;;;;;;;7.80;7.10;;;21.50;34.80;;;;;;5051753;28;20406;-66
2021/08/26 09:22:33;;;;;;;7.53;6.80;;;21.50;35.10;;;;;;5051409;28;20810;-67
2021/08/26 09:24:59;;;;;;;8.40;7.53;;;21.50;35.20;;;;;;5051056;28;20422;-68
2021/08/26 09:27:40;;;;;;;7.33;6.63;;;21.50;35.20;;;;;;5050991;28;20180;-67
2021/08/26 09:30:12;;;;;;;7.80;7.20;;;21.50;35.30;;;;;;5051776;28;20241;-66
2021/08/26 09:32:38;;;;;;;8.17;7.47;;;21.50;35.50;;;;;;5050910;28;20541;-66
2021/08/26 09:35:20;;;;;;;8.63;7.80;;;21.50;35.50;;;;;;5051414;28;20493;-64
2021/08/26 09:41:15;;;;;;;7.13;6.43;;;21.50;35.70;;;;;;5032448;28;20914;-67
2021/08/26 09:43:40;;;;;;;8.00;7.30;;;21.50;35.80;;;;;;5031297;28;20473;-65
2021/08/26 09:49:30;;;;;;;7.00;6.30;;;21.50;35.90;;;;;;5030106;28;20200;-64
2021/08/26 09:52:09;;;;;;;6.10;5.60;;;21.50;36.00;;;;;;5044140;28;20824;-67
2021/08/26 09:54:46;;;;;;;6.83;6.20;;;21.50;36.10;;;;;;5050547;28;20413;-65
2021/08/26 09:57:29;;;;;;;7.50;6.90;;;21.50;36.20;;;;;;5051278;28;20426;-66
2021/08/26 09:59:59;;;;;;;6.47;5.97;;;21.50;37.10;;;;;;5051211;28;20410;-65
2021/08/26 10:02:27;;;;;;;6.13;5.63;;;21.50;36.50;;;;;;5051003;28;20760;-66
2021/08/26 10:04:54;;;;;;;5.70;5.20;;;21.50;36.50;;;;;;5050763;28;20425;-67
2021/08/26 10:07:20;;;;;;;5.93;5.43;;;21.50;36.50;;;;;;5051107;28;20440;-66
2021/08/26 10:09:46;;;;;;;5.67;5.20;;;21.50;36.50;;;;;;5051228;28;20879;-66
2021/08/26 10:12:13;;;;;;;5.73;5.27;;;21.50;36.50;;;;;;5051192;28;20497;-64
2021/08/26 10:14:44;;;;;;;5.63;5.23;;;21.50;36.50;;;;;;5050864;28;20176;-66
2021/08/26 10:17:10;;;;;;;4.97;4.57;;;21.50;36.50;;;;;;5051341;28;20925;-67
2021/08/26 10:19:37;;;;;;;5.00;4.60;;;21.50;36.50;;;;;;5050710;28;20430;-67
2021/08/26 10:22:03;;;;;;;4.87;4.47;;;21.50;36.50;;;;;;5050899;28;20882;-67
2021/08/26 10:24:29;;;;;;;4.00;3.70;;;21.50;36.30;;;;;;5050748;28;20904;-69
2021/08/26 10:27:04;;;;;;;4.40;3.77;;;21.50;36.30;;;;;;5050789;28;20459;-68
2021/08/26 10:29:31;;;;;;;4.40;4.10;;;21.50;36.20;;;;;;5040045;28;20270;-68
2021/08/26 10:31:59;;;;;;;3.90;3.60;;;21.50;36.10;;;;;;5030601;28;20486;-66
2021/08/26 10:34:27;;;;;;;3.87;3.57;;;21.60;36.20;;;;;;5030861;28;20618;-68
2021/08/26 10:36:55;;;;;;;4.37;3.20;;;21.50;36.00;;;;;;5031041;28;20490;-66
2021/08/26 10:39:39;;;;;;;4.27;3.97;;;21.60;36.00;;;;;;5047648;28;20438;-67
2021/08/26 10:42:17;;;;;;;3.07;2.87;;;21.60;35.90;;;;;;5054494;28;20904;-66
2021/08/26 10:45:04;;;;;;;3.20;3.00;;;21.60;35.90;;;;;;5053542;28;20432;-66
2021/08/26 10:47:52;;;;;;;3.17;2.97;;;21.60;35.80;;;;;;5054435;28;20509;-66
2021/08/26 10:50:20;;;;;;;3.20;3.00;;;21.60;35.70;;;;;;5054260;28;20476;-66
2021/08/26 10:52:59;;;;;;;3.27;2.97;;;21.70;35.80;;;;;;5053810;28;20450;-67
2021/08/26 10:55:31;;;;;;;2.83;2.63;;;21.70;35.70;;;;;;5054172;28;20429;-67
2021/08/26 10:58:25;;;;;;;3.50;3.20;;;21.70;35.60;;;;;;5054005;28;20485;-66
2021/08/26 11:00:54;;;;;;;2.80;2.60;;;21.70;35.60;;;;;;5053806;28;20452;-66
2021/08/26 11:03:36;;;;;;;2.73;2.53;;;21.70;35.70;;;;;;5053973;28;20406;-66
2021/08/26 11:06:16;;;;;;;3.47;2.77;;;21.70;35.60;;;;;;5053874;28;20464;-67
2021/08/26 11:08:45;;;;;;;3.47;3.17;;;21.70;35.50;;;;;;5053863;28;20429;-67
2021/08/26 11:11:29;;;;;;;2.87;2.67;;;21.70;35.40;;;;;;5054183;28;20933;-66
2021/08/26 11:14:03;;;;;;;3.17;2.97;;;21.70;35.30;;;;;;5053677;28;20422;-67
2021/08/26 11:16:29;;;;;;;3.23;3.03;;;21.70;35.30;;;;;;5053644;28;20398;-66
2021/08/26 11:19:03;;;;;;;3.37;3.17;;;21.70;35.20;;;;;;5029455;28;20439;-66
2021/08/26 11:24:10;;;;;;;3.93;3.63;;;21.80;35.20;;;;;;5013499;28;20741;-67
2021/08/26 11:26:51;;;;;;;5.10;3.20;;;21.80;35.20;;;;;;5013590;28;20407;-66
2021/08/26 11:29:17;;;;;;;3.53;3.30;;;21.80;35.30;;;;;;5013566;28;20458;-67
2021/08/26 11:31:43;;;;;;;3.40;3.20;;;21.80;35.10;;;;;;5013820;28;20478;-66
2021/08/26 11:34:09;;;;;;;4.43;4.03;;;21.80;35.10;;;;;;5015174;28;20424;-66
2021/08/26 11:36:35;;;;;;;3.63;3.10;;;21.80;34.90;;;;;;5033117;28;20937;-66
2021/08/26 11:39:00;;;;;;;4.20;3.80;;;21.80;34.80;;;;;;5033019;28;20607;-69
2021/08/26 11:41:26;;;;;;;4.77;3.60;;;21.80;34.60;;;;;;5033304;28;20168;-67
2021/08/26 11:43:52;;;;;;;3.43;3.13;;;21.80;34.60;;;;;;5033626;28;20234;-67
2021/08/26 11:46:18;;;;;;;4.40;4.00;;;21.80;34.50;;;;;;5032895;28;20219;-67
2021/08/26 11:48:49;;;;;;;4.47;4.07;;;21.80;34.30;;;;;;5033262;28;20188;-68
2021/08/26 11:51:27;;;;;;;3.93;3.63;;;21.80;34.50;;;;;;5031694;28;20920;-67
2021/08/26 11:53:53;;;;;;;5.17;4.73;;;21.80;34.30;;;;;;5033171;28;21000;-66
2021/08/26 11:56:18;;;;;;;4.63;4.10;;;21.80;34.20;;;;;;5032965;28;20498;-66
2021/08/26 11:58:44;;;;;;;4.70;4.27;;;21.80;34.00;;;;;;5032924;28;20211;-65
2021/08/26 12:01:09;;;;;;;4.53;4.23;;;21.90;34.10;;;;;;5033078;28;20208;-69
2021/08/26 12:03:35;;;;;;;3.70;3.40;;;21.80;34.10;;;;;;5032864;28;20175;-67
2021/08/26 12:06:09;;;;;;;5.30;4.90;;;21.80;34.00;;;;;;5032833;28;20245;-68
2021/08/26 12:08:46;;;;;;;4.63;4.33;;;21.80;34.00;;;;;;5032646;28;20199;-67
2021/08/26 12:11:13;;;;;;;4.53;4.23;;;21.90;34.00;;;;;;5033076;28;20407;-66
2021/08/26 12:13:39;;;;;;;5.27;4.87;;;21.80;34.00;;;;;;5032429;28;20470;-70
2021/08/26 12:16:04;;;;;;;4.43;4.13;;;21.80;33.90;;;;;;5032588;28;20412;-67
2021/08/26 12:18:31;;;;;;;5.10;4.57;;;21.80;33.90;;;;;;5032469;28;20466;-67
2021/08/26 12:21:08;;;;;;;5.70;5.20;;;21.80;33.80;;;;;;5032946;28;20173;-68
2021/08/26 12:23:37;;;;;;;7.97;4.53;;;21.80;33.70;;;;;;5032698;28;20932;-67
2021/08/26 12:26:12;;;;;;;10.37;4.90;;;21.80;33.80;;;;;;5032549;28;20568;-67
2021/08/26 12:28:43;;;;;;;5.20;4.70;;;21.80;33.90;;;;;;5032190;28;20431;-66
2021/08/26 12:31:10;;;;;;;5.70;4.20;;;21.80;34.00;;;;;;5032611;28;20482;-67
2021/08/26 12:33:37;;;;;;;4.70;4.30;;;21.80;34.00;;;;;;5032220;28;20945;-67
2021/08/26 12:36:04;;;;;;;4.60;4.20;;;21.80;33.90;;;;;;5031985;28;20501;-68
2021/08/26 12:38:42;;;;;;;5.10;4.70;;;21.80;33.90;;;;;;5032409;28;20438;-67
2021/08/26 12:41:15;;;;;;;4.47;4.07;;;21.80;33.90;;;;;;5030446;28;20429;-67
2021/08/26 12:43:45;;;;;;;5.03;4.63;;;21.80;33.90;;;;;;5032257;28;20414;-67
2021/08/26 12:46:13;;;;;;;5.37;4.87;;;21.80;34.60;;;;;;5032394;28;20407;-67
2021/08/26 12:48:40;;;;;;;5.73;5.13;;;21.80;33.80;;;;;;5032333;28;20428;-66
2021/08/26 12:51:24;;;;;;;5.30;4.90;;;21.80;33.90;;;;;;5031703;28;20465;-66
2021/08/26 12:54:10;;;;;;;5.30;4.80;;;21.80;33.90;;;;;;5031771;28;20420;-66
2021/08/26 12:56:44;;;;;;;4.80;4.40;;;21.80;33.70;;;;;;5032440;28;20399;-66
2021/08/26 12:59:12;;;;;;;5.20;4.70;;;21.80;33.70;;;;;;5031229;28;20458;-66
2021/08/26 13:01:41;;;;;;;5.00;4.60;;;21.80;33.80;;;;;;5031839;28;20764;-66
2021/08/26 13:04:24;;;;;;;5.53;4.77;;;21.80;33.80;;;;;;5031747;28;20517;-67
2021/08/26 13:06:56;;;;;;;5.50;4.90;;;21.80;33.60;;;;;;5031374;28;20427;-66
2021/08/26 13:09:50;;;;;;;4.80;4.40;;;21.80;33.60;;;;;;5030673;28;20509;-68
2021/08/26 13:12:17;;;;;;;5.27;4.77;;;21.80;33.90;;;;;;5030496;28;20871;-68
2021/08/26 13:14:45;;;;;;;5.53;5.03;;;21.80;33.70;;;;;;5031049;28;20906;-68
2021/08/26 13:17:12;;;;;;;5.43;4.87;;;21.80;33.80;;;;;;5031975;28;20427;-68
2021/08/26 13:19:44;;;;;;;5.53;5.10;;;21.80;33.70;;;;;;5031819;28;20431;-69
2021/08/26 13:22:29;;;;;;;5.00;4.70;;;21.80;33.80;;;;;;5031676;28;20416;-66
2021/08/26 13:24:57;;;;;;;5.93;5.40;;;21.80;33.70;;;;;;5031635;28;20415;-67
2021/08/26 13:27:24;;;;;;;4.97;4.57;;;21.80;33.60;;;;;;5031727;28;20419;-67
2021/08/26 13:29:50;;;;;;;4.90;4.50;;;21.90;33.70;;;;;;5031428;28;20407;-64